Pazifik — ZDKS7 — position and weather

sailwx.info

Track history (hours):
 
Tides and Currents Weather Stations Pressure Air Temp Water Temp Dewpoint Dewpoint Depression Visibility Wind Speed Wind Dir Waves Ship Positions

Pazifik

Last reported at 2014-Jul-31 07:33 UTC. Time now 2014-Jul-31 07:35 UTC.
Position N 29°45' E 122°26'.

Length 205 m; draft 10.6 m.

Type: Ship. MMSI: 236111796.

Date/timePositionNaut miles runAvg speedWind from/ knotsBaromVisibWave heightAir tempDewpointWater temp
2014-Jul-31 07:33N 29°45' E 122°26'0 0.1
2014-Jul-31 06:33N 29°45' E 122°27'4 4.3
2014-Jul-31 05:33N 29°46' E 122°22'4 4.5
2014-Jul-31 04:33N 29°46' E 122°17'1010.0
2014-Jul-31 03:33N 29°54' E 122°09'10 9.6
2014-Jul-31 02:33N 29°57' E 121°59'0 0.1
2014-Jul-30 22:12N 29°57' E 121°58'0 0.0
2014-Jul-30 21:24N 29°57' E 121°58'0 0.0
2014-Jul-30 17:18N 29°57' E 121°58'0 0.0
2014-Jul-30 14:24N 29°57' E 121°58'0 0.0
2014-Jul-30 12:24N 29°57' E 121°58'0 0.0
2014-Jul-30 11:30N 29°57' E 121°58'0 0.0
2014-Jul-30 10:30N 29°57' E 121°58'0 0.0
2014-Jul-30 09:30N 29°57' E 121°58'0 0.0
2014-Jul-30 08:30N 29°57' E 121°58'0 0.0
2014-Jul-30 07:30N 29°57' E 121°58'0 0.0
2014-Jul-30 06:24N 29°57' E 121°58'2 2.6
2014-Jul-30 05:33N 29°56' E 122°01'1010.3
2014-Jul-30 04:34N 29°52' E 122°12'1010.2
2014-Jul-30 03:33N 29°45' E 122°21'2 1.8
2014-Jul-30 02:11N 29°46' E 122°24'0 0.1
2014-Jul-30 01:29N 29°46' E 122°24'0 0.1
2014-Jul-30 00:29N 29°46' E 122°24'0 0.0
2014-Jul-29 23:29N 29°46' E 122°24'0 0.2
2014-Jul-29 22:29N 29°46' E 122°24'0 0.0
2014-Jul-29 21:29N 29°46' E 122°24'0 0.1
2014-Jul-29 20:29N 29°46' E 122°24'0 0.0
2014-Jul-29 19:29N 29°46' E 122°24'0 0.1
2014-Jul-29 18:29N 29°46' E 122°24'0 0.1
2014-Jul-29 17:29N 29°46' E 122°24'0 0.2
2014-Jul-29 16:23N 29°46' E 122°24'0 0.1
2014-Jul-29 15:23N 29°46' E 122°24'0 0.0
2014-Jul-29 14:29N 29°46' E 122°24'0 0.0
2014-Jul-29 13:29N 29°46' E 122°24'0 0.0
2014-Jul-29 12:29N 29°46' E 122°24'0 0.1
2014-Jul-29 11:29N 29°46' E 122°24'0 0.1
2014-Jul-29 10:29N 29°46' E 122°24'0 0.1
2014-Jul-29 09:29N 29°46' E 122°24'0 0.1
2014-Jul-29 08:29N 29°46' E 122°24'0 0.5
2014-Jul-29 07:33N 29°46' E 122°24'1010.1
2014-Jul-29 06:33N 29°48' E 122°36'1413.7
2014-Jul-29 05:33N 29°59' E 122°46'  
2014-Jul-25 00:00N 43°42' W 147°12'   230 / 61005.0 2.2 0.516.014.411.5
2014-Jul-21 12:00N 49°54' E 174°12'   300 / 191020.0 1.1 10.510.510.5
Track history (hours):
 
Tides and Currents Weather Stations Pressure Air Temp Water Temp Dewpoint Dewpoint Depression Visibility Wind Speed Wind Dir Waves Ship Positions

Pazifik

Last reported at 2014-Jul-31 07:33 UTC. Time now 2014-Jul-31 07:35 UTC.
Position N 29°45' E 122°26'.

Length 205 m; draft 10.6 m.

Type: Ship. MMSI: 236111796.

Date/timePositionNaut miles runAvg speedWind from/ knotsBaromVisibWave heightAir tempDewpointWater temp
2014-Jul-31 07:33N 29°45' E 122°26'0 0.1
2014-Jul-31 06:33N 29°45' E 122°27'4 4.3
2014-Jul-31 05:33N 29°46' E 122°22'4 4.5
2014-Jul-31 04:33N 29°46' E 122°17'1010.0
2014-Jul-31 03:33N 29°54' E 122°09'10 9.6
2014-Jul-31 02:33N 29°57' E 121°59'0 0.1
2014-Jul-30 22:12N 29°57' E 121°58'0 0.0
2014-Jul-30 21:24N 29°57' E 121°58'0 0.0
2014-Jul-30 17:18N 29°57' E 121°58'0 0.0
2014-Jul-30 14:24N 29°57' E 121°58'0 0.0
2014-Jul-30 12:24N 29°57' E 121°58'0 0.0
2014-Jul-30 11:30N 29°57' E 121°58'0 0.0
2014-Jul-30 10:30N 29°57' E 121°58'0 0.0
2014-Jul-30 09:30N 29°57' E 121°58'0 0.0
2014-Jul-30 08:30N 29°57' E 121°58'0 0.0
2014-Jul-30 07:30N 29°57' E 121°58'0 0.0
2014-Jul-30 06:24N 29°57' E 121°58'2 2.6
2014-Jul-30 05:33N 29°56' E 122°01'1010.3
2014-Jul-30 04:34N 29°52' E 122°12'1010.2
2014-Jul-30 03:33N 29°45' E 122°21'2 1.8
2014-Jul-30 02:11N 29°46' E 122°24'0 0.1
2014-Jul-30 01:29N 29°46' E 122°24'0 0.1
2014-Jul-30 00:29N 29°46' E 122°24'0 0.0
2014-Jul-29 23:29N 29°46' E 122°24'0 0.2
2014-Jul-29 22:29N 29°46' E 122°24'0 0.0
2014-Jul-29 21:29N 29°46' E 122°24'0 0.1
2014-Jul-29 20:29N 29°46' E 122°24'0 0.0
2014-Jul-29 19:29N 29°46' E 122°24'0 0.1
2014-Jul-29 18:29N 29°46' E 122°24'0 0.1
2014-Jul-29 17:29N 29°46' E 122°24'0 0.2
2014-Jul-29 16:23N 29°46' E 122°24'0 0.1
2014-Jul-29 15:23N 29°46' E 122°24'0 0.0
2014-Jul-29 14:29N 29°46' E 122°24'0 0.0
2014-Jul-29 13:29N 29°46' E 122°24'0 0.0
2014-Jul-29 12:29N 29°46' E 122°24'0 0.1
2014-Jul-29 11:29N 29°46' E 122°24'0 0.1
2014-Jul-29 10:29N 29°46' E 122°24'0 0.1
2014-Jul-29 09:29N 29°46' E 122°24'0 0.1
2014-Jul-29 08:29N 29°46' E 122°24'0 0.5
2014-Jul-29 07:33N 29°46' E 122°24'1010.1
2014-Jul-29 06:33N 29°48' E 122°36'1413.7
2014-Jul-29 05:33N 29°59' E 122°46'  
2014-Jul-25 00:00N 43°42' W 147°12'   230 / 61005.0 2.2 0.516.014.411.5
2014-Jul-21 12:00N 49°54' E 174°12'   300 / 191020.0 1.1 10.510.510.5

Dump ship's entire track history